METAR AND TAF INFORMATION
METAR FOR LPPR
ADDS - METARS form results

(1222 UTC 20 April 2018)
Data provider http://aviationweather.gov/adds/metars/
 
METAR text: LPPR 201200Z 10009KT 030V140 CAVOK 26/10 Q1014
Conditions at: LPPR (PORTO/PEDRAS RUB, PT) observed 1200 UTC 20 April 2018
Temperature: 26.0°C (79°F)
Dewpoint: 10.0°C (50°F) [RH = 37%]
Pressure (altimeter): 29.94 inches Hg (1014.0 mb)
Winds: from the E (100 degrees) at 10 MPH (9 knots; 4.7 m/s)
Visibility: 6 or more miles (10+ km)
Ceiling: ceiling and visibility are OK
Clouds: unknown
Weather: no significant weather observed at this time

METAR text: LPPR 201130Z 11011KT 080V140 CAVOK 26/10 Q1014
Conditions at: LPPR (PORTO/PEDRAS RUB, PT) observed 1130 UTC 20 April 2018
Temperature: 26.0°C (79°F)
Dewpoint: 10.0°C (50°F) [RH = 37%]
Pressure (altimeter): 29.94 inches Hg (1014.0 mb)
Winds: from the ESE (110 degrees) at 13 MPH (11 knots; 5.7 m/s)
Visibility: 6 or more miles (10+ km)
Ceiling: ceiling and visibility are OK
Clouds: unknown
Weather: no significant weather observed at this time

Forecast for: LPPR (PORTO/PEDRAS RUB, PT)
Text: TAF LPPR 201130Z 2012/2112 10010KT CAVOK
Forecast period: 1200 to 1300 UTC 20 April 2018
Forecast type: FROM: standard forecast or significant change
Winds: from the E (100 degrees) at 12 MPH (10 knots; 5.2 m/s)
Visibility: 6 or more miles (10+ km)
Clouds: not forecast
Weather: NSW  (no significant weather)
Forecast for: LPPR (PORTO/PEDRAS RUB, PT)
Text: TAF LPPR 201130Z 2012/2112 10010KT CAVOK
Forecast period: 1200 to 1300 UTC 20 April 2018
Forecast type: FROM: standard forecast or significant change
Winds: from the E (100 degrees) at 12 MPH (10 knots; 5.2 m/s)
Visibility: 6 or more miles (10+ km)
Clouds: not forecast
Weather: NSW  (no significant weather)
Forecast for: LPPR (PORTO/PEDRAS RUB, PT)
Text: TAF LPPR 201130Z 2012/2112 10010KT CAVOK
Forecast period: 1300 to 1800 UTC 20 April 2018
Forecast type: BECOMING: Conditions expected to become as follows by 1600 UTC 20 April 2018
Winds: from the NNW (340 degrees) at 9 MPH (8 knots; 4.2 m/s)
Visibility: 6 or more miles (10+ km)
Weather: NSW  (no significant weather)
Forecast for: LPPR (PORTO/PEDRAS RUB, PT)
Text: TAF LPPR 201130Z 2012/2112 10010KT CAVOK
Forecast period: 1300 to 1800 UTC 20 April 2018
Forecast type: BECOMING: Conditions expected to become as follows by 1600 UTC 20 April 2018
Winds: from the NNW (340 degrees) at 9 MPH (8 knots; 4.2 m/s)
Visibility: 6 or more miles (10+ km)
Weather: NSW  (no significant weather)
Forecast for: LPPR (PORTO/PEDRAS RUB, PT)
Text: TAF LPPR 201130Z 2012/2112 10010KT CAVOK
Forecast period: 1800 to 2200 UTC 20 April 2018
Forecast type: BECOMING: Conditions expected to become as follows by 2000 UTC 20 April 2018
Winds: variable direction winds at 3 MPH (3 knots; 1.6 m/s)
Visibility: 6 or more miles (10+ km)
Weather: NSW  (no significant weather)
Forecast for: LPPR (PORTO/PEDRAS RUB, PT)
Text: TAF LPPR 201130Z 2012/2112 10010KT CAVOK
Forecast period: 1800 to 2200 UTC 20 April 2018
Forecast type: BECOMING: Conditions expected to become as follows by 2000 UTC 20 April 2018
Winds: variable direction winds at 3 MPH (3 knots; 1.6 m/s)
Visibility: 6 or more miles (10+ km)
Weather: NSW  (no significant weather)
Forecast for: LPPR (PORTO/PEDRAS RUB, PT)
Text: TAF LPPR 201130Z 2012/2112 10010KT CAVOK
Forecast period: 2200 UTC 20 April 2018 to 0600 UTC 21 April 2018
Forecast type: BECOMING: Conditions expected to become as follows by 0000 UTC 21 April 2018
Winds: from the E (90 degrees) at 6 MPH (5 knots; 2.6 m/s)
Visibility: 6 or more miles (10+ km)
Weather: NSW  (no significant weather)
Forecast for: LPPR (PORTO/PEDRAS RUB, PT)
Text: TAF LPPR 201130Z 2012/2112 10010KT CAVOK
Forecast period: 2200 UTC 20 April 2018 to 0600 UTC 21 April 2018
Forecast type: BECOMING: Conditions expected to become as follows by 0000 UTC 21 April 2018
Winds: from the E (90 degrees) at 6 MPH (5 knots; 2.6 m/s)
Visibility: 6 or more miles (10+ km)
Weather: NSW  (no significant weather)
Forecast for: LPPR (PORTO/PEDRAS RUB, PT)
Text: TAF LPPR 201130Z 2012/2112 10010KT CAVOK
Forecast period: 0600 to 1200 UTC 21 April 2018
Forecast type: BECOMING: Conditions expected to become as follows by 0900 UTC 21 April 2018
Winds: variable direction winds at 3 MPH (3 knots; 1.6 m/s)
Visibility: 5 miles (8 km)
Ceiling: 4500 feet AGL
Clouds: broken clouds at 4500 feet AGL
Weather: -RA  (light rain)
Forecast for: LPPR (PORTO/PEDRAS RUB, PT)
Text: TAF LPPR 201130Z 2012/2112 10010KT CAVOK
Forecast period: 0600 to 1200 UTC 21 April 2018
Forecast type: BECOMING: Conditions expected to become as follows by 0900 UTC 21 April 2018
Winds: variable direction winds at 3 MPH (3 knots; 1.6 m/s)
Visibility: 5 miles (8 km)
Ceiling: 4500 feet AGL
Clouds: broken clouds at 4500 feet AGL
Weather: -RA  (light rain)

 AIRPORT MAP

 RUNWAY INFORMATION
Runway 17 Runway length 11417 ft Runway width 148 ft
Runway elevation 151 ft Runway displaced threshold 984 ft Runway heading 169
Runway 35 Runway length 11417 ft Runway width 148 ft
Runway elevation 226 ft Runway displaced threshold 492 ft Runway heading 349

 AIRPORT FREQUENCIES
Type APP Name APP Frequency 121.1 MHZ
Type ATIS Name ATIS Frequency 124.3 MHZ
Type TWR Name TWR Frequency 118 MHZ

 AIRPORT NEAR NAVIGATION AIDS
Type NDB Name Porto Frequency 367 KHZ
Type NDB Name Porto Frequency 327 KHZ
Type VOR-DME Name Porto Frequency 114100 KHZ



Powered by Virtual Airlines Manager [v2.6.2]